Time,TemperatureF,DewpointF,PressureIn,WindDirection,WindDirectionDegrees,WindSpeedMPH,WindSpeedGustMPH,Humidity,HourlyPrecipIn,Conditions,Clouds,dailyrainin,SoftwareType,DateUTC
2013-02-09 00:21:00,18.0,14.0,30.00,NW,320,1.0,5.0,83,0.00,,,-99.99,,2013-02-09 08:21:00,
2013-02-09 00:31:00,18.0,14.0,30.00,NW,320,1.0,5.0,83,0.00,,,-99.99,,2013-02-09 08:31:00,
2013-02-09 00:41:00,18.0,14.0,30.00,NW,320,1.0,5.0,83,0.00,,,-99.99,,2013-02-09 08:41:00,
2013-02-09 01:21:00,18.0,14.0,30.03,WSW,250,1.0,6.0,83,0.00,,,-99.99,,2013-02-09 09:21:00,
2013-02-09 01:31:00,18.0,14.0,30.03,WSW,250,1.0,6.0,83,0.00,,,-99.99,,2013-02-09 09:31:00,
2013-02-09 01:41:00,18.0,14.0,30.03,WSW,250,1.0,6.0,83,0.00,,,-99.99,,2013-02-09 09:41:00,
2013-02-09 02:21:00,19.0,15.0,30.01,WNW,290,1.0,5.0,83,0.00,,,-99.99,,2013-02-09 10:21:00,
2013-02-09 02:31:00,19.0,15.0,30.01,WNW,290,1.0,5.0,83,0.00,,,-99.99,,2013-02-09 10:31:00,
2013-02-09 02:41:00,19.0,15.0,30.01,WNW,290,1.0,5.0,83,0.00,,,-99.99,,2013-02-09 10:41:00,
2013-02-09 03:21:00,18.0,14.0,30.02,West,260,2.0,6.0,83,0.00,,,-99.99,,2013-02-09 11:21:00,
2013-02-09 03:31:00,18.0,14.0,30.02,West,260,2.0,6.0,83,0.00,,,-99.99,,2013-02-09 11:31:00,
2013-02-09 03:41:00,18.0,14.0,30.02,West,260,2.0,6.0,83,0.00,,,-99.99,,2013-02-09 11:41:00,
2013-02-09 04:21:00,18.0,14.0,30.04,WSW,240,2.0,6.0,83,0.00,,,-99.99,,2013-02-09 12:21:00,
2013-02-09 04:32:00,18.0,14.0,30.04,WSW,240,2.0,6.0,83,0.00,,,-99.99,,2013-02-09 12:32:00,
2013-02-09 04:42:00,18.0,14.0,30.04,WSW,240,2.0,6.0,83,0.00,,,-99.99,,2013-02-09 12:42:00,
2013-02-09 05:21:00,18.0,14.0,30.05,West,260,2.0,6.0,83,0.00,,,-99.99,,2013-02-09 13:21:00,
2013-02-09 05:32:00,18.0,14.0,30.05,West,260,2.0,6.0,83,0.00,,,-99.99,,2013-02-09 13:32:00,
2013-02-09 05:42:00,18.0,14.0,30.05,West,260,2.0,6.0,83,0.00,,,-99.99,,2013-02-09 13:42:00,
2013-02-09 06:21:00,18.0,14.0,30.08,WSW,250,1.0,3.0,83,0.00,,,-99.99,,2013-02-09 14:21:00,
2013-02-09 06:31:00,18.0,14.0,30.08,WSW,250,1.0,3.0,83,0.00,,,-99.99,,2013-02-09 14:31:00,
2013-02-09 06:41:00,18.0,14.0,30.08,WSW,250,1.0,3.0,83,0.00,,,-99.99,,2013-02-09 14:41:00,
2013-02-09 07:21:00,18.0,14.0,30.09,WNW,300,3.0,10.0,83,0.00,,,-99.99,,2013-02-09 15:21:00,
2013-02-09 07:32:00,18.0,14.0,30.09,WNW,300,3.0,10.0,83,0.00,,,-99.99,,2013-02-09 15:32:00,
2013-02-09 07:41:00,18.0,14.0,30.09,WNW,300,3.0,10.0,83,0.00,,,-99.99,,2013-02-09 15:41:00,
2013-02-09 08:22:00,19.0,14.0,30.09,WNW,290,3.0,7.0,81,0.00,,,-99.99,,2013-02-09 16:22:00,
2013-02-09 08:31:00,19.0,14.0,30.09,WNW,290,3.0,7.0,81,0.00,,,-99.99,,2013-02-09 16:31:00,
2013-02-09 08:41:00,19.0,14.0,30.09,WNW,290,3.0,7.0,81,0.00,,,-99.99,,2013-02-09 16:41:00,
2013-02-09 10:23:00,23.0,17.0,30.13,NW,320,4.0,11.0,78,0.00,,,-99.99,,2013-02-09 18:23:00,
2013-02-09 10:32:00,23.0,17.0,30.13,NW,320,4.0,11.0,78,0.00,,,-99.99,,2013-02-09 18:32:00,
2013-02-09 10:42:00,23.0,17.0,30.13,NW,320,4.0,11.0,78,0.00,,,-99.99,,2013-02-09 18:42:00,
2013-02-09 11:22:00,26.0,19.0,30.12,NW,320,2.0,8.0,74,0.02,,,-99.99,,2013-02-09 19:22:00,
2013-02-09 11:31:00,26.0,19.0,30.12,NW,320,2.0,8.0,74,0.02,,,-99.99,,2013-02-09 19:31:00,
2013-02-09 11:41:00,26.0,19.0,30.12,NW,320,2.0,8.0,74,0.02,,,-99.99,,2013-02-09 19:41:00,
2013-02-09 12:21:00,27.0,18.0,30.12,NW,310,4.0,9.0,68,0.06,,,-99.99,,2013-02-09 20:21:00,
2013-02-09 12:31:00,27.0,18.0,30.12,NW,310,4.0,9.0,68,0.06,,,-99.99,,2013-02-09 20:31:00,
2013-02-09 12:41:00,27.0,18.0,30.12,NW,310,4.0,9.0,68,0.06,,,-99.99,,2013-02-09 20:41:00,
2013-02-09 13:21:00,28.0,18.0,30.11,WNW,290,4.0,11.0,65,0.04,,,-99.99,,2013-02-09 21:21:00,
2013-02-09 13:31:00,28.0,18.0,30.11,WNW,290,4.0,11.0,65,0.04,,,-99.99,,2013-02-09 21:31:00,
2013-02-09 13:41:00,28.0,18.0,30.11,WNW,290,4.0,11.0,65,0.04,,,-99.99,,2013-02-09 21:41:00,
2013-02-09 14:21:00,30.0,19.0,30.09,West,280,3.0,10.0,63,0.05,,,-99.99,,2013-02-09 22:21:00,
2013-02-09 14:31:00,30.0,19.0,30.09,West,280,3.0,10.0,63,0.05,,,-99.99,,2013-02-09 22:31:00,
2013-02-09 14:41:00,30.0,19.0,30.09,West,280,3.0,10.0,63,0.05,,,-99.99,,2013-02-09 22:41:00,
2013-02-09 15:21:00,31.0,19.0,30.07,West,280,1.0,6.0,60,0.04,,,-99.99,,2013-02-09 23:21:00,
2013-02-09 15:31:00,31.0,19.0,30.07,West,280,1.0,6.0,60,0.04,,,-99.99,,2013-02-09 23:31:00,
2013-02-09 15:42:00,31.0,19.0,30.07,West,280,1.0,6.0,60,0.04,,,-99.99,,2013-02-09 23:42:00,
2013-02-09 16:21:00,29.0,18.0,30.12,West,270,4.0,8.0,64,0.02,,,-99.99,,2013-02-10 00:21:00,
2013-02-09 16:32:00,29.0,18.0,30.12,West,270,4.0,8.0,64,0.02,,,-99.99,,2013-02-10 00:32:00,
2013-02-09 16:41:00,29.0,18.0,30.12,West,270,4.0,8.0,64,0.02,,,-99.99,,2013-02-10 00:41:00,
2013-02-09 18:22:00,23.0,14.0,30.20,North,-999,0.0,0.0,69,0.01,,,-99.99,,2013-02-10 02:22:00,
2013-02-09 18:31:00,23.0,14.0,30.20,North,-999,0.0,0.0,69,0.01,,,-99.99,,2013-02-10 02:31:00,
2013-02-09 18:41:00,23.0,14.0,30.20,North,-999,0.0,0.0,69,0.01,,,-99.99,,2013-02-10 02:41:00,
2013-02-09 19:21:00,19.0,12.0,30.22,North,0,0.0,2.0,73,0.00,,,-99.99,,2013-02-10 03:21:00,
2013-02-09 19:32:00,19.0,12.0,30.22,North,0,0.0,2.0,73,0.00,,,-99.99,,2013-02-10 03:32:00,
2013-02-09 19:41:00,19.0,12.0,30.22,North,0,0.0,2.0,73,0.00,,,-99.99,,2013-02-10 03:41:00,
2013-02-09 20:21:00,15.0,9.0,30.25,WSW,250,1.0,3.0,76,0.00,,,-99.99,,2013-02-10 04:21:00,
2013-02-09 20:32:00,15.0,9.0,30.25,WSW,250,1.0,3.0,76,0.00,,,-99.99,,2013-02-10 04:32:00,
2013-02-09 20:41:00,15.0,9.0,30.25,WSW,250,1.0,3.0,76,0.00,,,-99.99,,2013-02-10 04:41:00,
2013-02-09 21:22:00,12.0,6.0,30.28,North,-999,0.0,0.0,76,0.00,,,-99.99,,2013-02-10 05:22:00,
2013-02-09 21:31:00,12.0,6.0,30.28,North,-999,0.0,0.0,76,0.00,,,-99.99,,2013-02-10 05:31:00,
2013-02-09 21:41:00,12.0,6.0,30.28,North,-999,0.0,0.0,76,0.00,,,-99.99,,2013-02-10 05:41:00,
2013-02-09 22:21:00,9.0,3.0,30.29,WSW,240,1.0,2.0,77,0.00,,,-99.99,,2013-02-10 06:21:00,
2013-02-09 22:32:00,9.0,3.0,30.29,WSW,240,1.0,2.0,77,0.00,,,-99.99,,2013-02-10 06:32:00,
2013-02-09 22:42:00,9.0,3.0,30.29,WSW,240,1.0,2.0,77,0.00,,,-99.99,,2013-02-10 06:42:00,
2013-02-09 23:21:00,7.0,1.0,30.29,North,0,0.0,2.0,77,0.00,,,-99.99,,2013-02-10 07:21:00,
2013-02-09 23:31:00,7.0,1.0,30.29,North,0,0.0,2.0,77,0.00,,,-99.99,,2013-02-10 07:31:00,